Time;durP1;ratioP1;P1;durP2;ratioP2;P2;SDS_P1;SDS_P2;PMS_P1;PMS_P2;Temp;Humidity;BMP_temperature;BMP_pressure;BME280_temperature;BME280_humidity;BME280_pressure;Samples;Min_cycle;Max_cycle;Signal;HPM_P1;HPM_P2
2023/05/14 00:00:14;;;;;;;11.75;6.60;;;15.60;94.80;;;;;;6215778;23;20001;-80
2023/05/14 00:02:40;;;;;;;9.52;6.03;;;15.60;95.00;;;;;;6215699;23;20511;-79
2023/05/14 00:05:06;;;;;;;10.65;6.35;;;15.50;95.00;;;;;;6215708;23;20035;-80
2023/05/14 00:07:31;;;;;;;12.02;6.38;;;15.50;94.90;;;;;;6215322;23;20450;-80
2023/05/14 00:09:58;;;;;;;10.32;6.10;;;15.50;95.10;;;;;;6215357;23;20026;-77
2023/05/14 00:12:25;;;;;;;8.40;5.57;;;15.50;95.20;;;;;;6215396;23;20427;-80
2023/05/14 00:14:51;;;;;;;9.68;5.97;;;15.50;95.20;;;;;;6215779;23;20001;-80
2023/05/14 00:17:17;;;;;;;9.75;5.57;;;15.50;95.10;;;;;;6188913;23;20454;-80
2023/05/14 00:19:42;;;;;;;12.35;5.82;;;15.50;95.10;;;;;;6215152;23;19997;-78
2023/05/14 00:22:08;;;;;;;12.95;5.72;;;15.60;95.20;;;;;;6215390;23;20008;-80
2023/05/14 00:24:34;;;;;;;10.20;5.15;;;15.50;95.10;;;;;;6215298;23;20473;-79
2023/05/14 00:27:00;;;;;;;9.50;5.35;;;15.60;95.30;;;;;;6214898;23;20021;-79
2023/05/14 00:29:26;;;;;;;11.13;5.55;;;15.60;95.20;;;;;;6214731;23;20005;-79
2023/05/14 00:31:52;;;;;;;8.23;5.13;;;15.60;95.20;;;;;;6214935;23;20457;-80
2023/05/14 00:34:17;;;;;;;8.85;5.28;;;15.60;95.30;;;;;;6215238;23;20413;-78
2023/05/14 00:36:43;;;;;;;9.23;5.15;;;15.60;95.30;;;;;;6188479;23;20009;-79
2023/05/14 00:39:08;;;;;;;7.22;5.00;;;15.50;95.20;;;;;;6215328;23;20338;-78
2023/05/14 00:41:34;;;;;;;9.52;5.15;;;15.60;95.30;;;;;;6215854;23;20071;-79
2023/05/14 00:44:00;;;;;;;15.90;5.90;;;15.50;95.40;;;;;;6214930;23;20457;-78
2023/05/14 00:46:26;;;;;;;9.57;5.32;;;15.50;95.70;;;;;;6215083;23;20019;-80
2023/05/14 00:48:52;;;;;;;8.73;5.20;;;15.50;95.40;;;;;;6215198;23;20028;-78
2023/05/14 00:51:19;;;;;;;11.88;6.13;;;15.50;95.60;;;;;;6214725;23;20005;-79
2023/05/14 00:53:46;;;;;;;7.72;5.10;;;15.50;95.50;;;;;;6215400;23;19996;-79
2023/05/14 00:56:13;;;;;;;7.28;4.88;;;15.50;95.50;;;;;;6188089;23;20031;-77
2023/05/14 00:58:38;;;;;;;10.85;5.65;;;15.50;95.60;;;;;;6215157;23;20000;-78
2023/05/14 01:01:04;;;;;;;8.75;5.40;;;15.40;95.60;;;;;;6214891;23;20004;-78
2023/05/14 01:03:31;;;;;;;11.40;5.50;;;15.40;95.70;;;;;;6215259;23;20017;-78
2023/05/14 01:06:23;;;;;;;8.38;4.70;;;15.40;95.80;;;;;;6215152;23;20001;-79
2023/05/14 01:08:48;;;;;;;7.57;4.22;;;15.50;95.80;;;;;;6214993;23;20011;-78
2023/05/14 01:11:22;;;;;;;12.20;5.13;;;15.50;95.90;;;;;;6215124;23;20001;-78
2023/05/14 01:13:56;;;;;;;;;;;15.50;95.70;;;;;;6215299;23;20079;-78
2023/05/14 01:16:26;;;;;;;7.63;4.82;;;15.60;96.10;;;;;;6214859;23;19904;-79
2023/05/14 01:18:55;;;;;;;8.45;4.82;;;15.50;95.70;;;;;;6214871;23;20000;-79
2023/05/14 01:21:36;;;;;;;8.98;4.55;;;15.60;95.70;;;;;;6215094;23;20075;-79
2023/05/14 01:24:02;;;;;;;9.27;4.57;;;15.50;95.70;;;;;;6215458;23;20005;-79
2023/05/14 01:26:30;;;;;;;8.15;4.57;;;15.50;95.80;;;;;;6188742;23;20035;-79
2023/05/14 01:29:06;;;;;;;11.05;4.53;;;15.60;95.70;;;;;;6215386;23;20009;-79
2023/05/14 01:31:35;;;;;;;9.02;4.20;;;15.60;95.70;;;;;;6214670;23;20001;-79
2023/05/14 01:34:03;;;;;;;12.98;4.18;;;15.60;95.70;;;;;;6214556;23;20012;-78
2023/05/14 01:36:30;;;;;;;8.52;4.10;;;15.60;95.80;;;;;;6211982;23;20032;-79
2023/05/14 01:38:56;;;;;;;7.97;4.97;;;15.50;95.90;;;;;;6214251;23;20007;-78
2023/05/14 01:41:24;;;;;;;8.15;4.40;;;15.50;96.00;;;;;;6214802;23;20007;-78
2023/05/14 01:43:50;;;;;;;9.05;3.97;;;15.50;95.90;;;;;;6214722;23;20082;-78
2023/05/14 01:46:19;;;;;;;8.68;4.85;;;15.50;96.10;;;;;;6214329;23;20008;-77
2023/05/14 01:48:45;;;;;;;7.88;4.20;;;15.50;96.20;;;;;;6214811;23;20031;-78
2023/05/14 01:51:13;;;;;;;7.28;4.40;;;15.50;96.00;;;;;;6214399;23;20446;-78
2023/05/14 01:53:39;;;;;;;8.13;4.18;;;15.50;96.00;;;;;;6214216;23;20304;-78
2023/05/14 01:56:05;;;;;;;8.63;4.43;;;15.50;95.90;;;;;;6214351;23;20000;-80
2023/05/14 01:58:30;;;;;;;7.05;3.88;;;15.50;96.00;;;;;;6214468;23;20008;-77
2023/05/14 02:00:56;;;;;;;8.68;4.28;;;15.50;96.20;;;;;;6214568;23;20001;-78
2023/05/14 02:03:22;;;;;;;5.93;3.88;;;15.50;96.10;;;;;;6214077;23;20040;-79
2023/05/14 02:05:47;;;;;;;11.73;3.97;;;15.50;96.20;;;;;;6213969;23;20004;-79
2023/05/14 02:08:13;;;;;;;8.05;4.22;;;15.50;96.10;;;;;;6214149;23;20095;-79
2023/05/14 02:10:38;;;;;;;10.75;4.53;;;15.50;96.10;;;;;;6214301;23;20001;-79
2023/05/14 02:13:04;;;;;;;10.18;4.18;;;15.50;96.10;;;;;;6216704;23;20000;-78
2023/05/14 02:15:30;;;;;;;6.45;4.22;;;15.50;96.30;;;;;;6213708;23;20536;-78
2023/05/14 02:17:55;;;;;;;6.95;3.60;;;15.50;96.40;;;;;;6214194;23;20001;-77
2023/05/14 02:20:21;;;;;;;8.77;4.30;;;15.50;96.40;;;;;;6214018;23;20008;-77
2023/05/14 02:22:47;;;;;;;10.45;3.90;;;15.40;96.30;;;;;;6214250;23;20001;-78
2023/05/14 02:25:12;;;;;;;8.15;4.20;;;15.40;96.40;;;;;;6214351;23;20036;-78
2023/05/14 02:27:38;;;;;;;7.03;4.25;;;15.50;96.50;;;;;;6213843;23;20008;-77
2023/05/14 02:30:05;;;;;;;7.57;4.05;;;15.50;96.40;;;;;;6213828;23;20003;-79
2023/05/14 02:32:30;;;;;;;9.60;4.50;;;15.50;96.40;;;;;;6214295;23;20012;-78
2023/05/14 02:34:56;;;;;;;11.93;4.35;;;15.50;96.30;;;;;;6214055;23;20001;-78
2023/05/14 02:37:21;;;;;;;7.97;4.43;;;15.40;96.40;;;;;;6214061;23;20001;-78
2023/05/14 02:39:48;;;;;;;9.35;4.25;;;15.40;96.50;;;;;;6213981;23;20012;-78
2023/05/14 02:42:13;;;;;;;7.70;4.53;;;15.30;96.50;;;;;;6214112;23;20015;-78
2023/05/14 02:44:39;;;;;;;9.20;4.55;;;15.30;96.50;;;;;;6214225;23;20005;-79
2023/05/14 02:47:05;;;;;;;8.95;4.75;;;15.30;96.40;;;;;;6214572;23;20055;-78
2023/05/14 02:49:31;;;;;;;7.45;4.32;;;15.30;96.50;;;;;;6214514;23;20346;-78
2023/05/14 02:51:57;;;;;;;8.95;4.10;;;15.30;96.50;;;;;;6214382;23;20387;-78
2023/05/14 02:54:22;;;;;;;8.85;4.10;;;15.40;96.40;;;;;;6214265;23;20422;-77
2023/05/14 02:56:48;;;;;;;6.45;3.85;;;15.40;96.50;;;;;;6214245;23;20012;-78
2023/05/14 02:59:14;;;;;;;6.50;4.25;;;15.50;96.70;;;;;;6215340;23;20126;-78
2023/05/14 03:01:39;;;;;;;7.68;4.25;;;15.50;96.40;;;;;;6214102;23;20004;-79
2023/05/14 03:04:05;;;;;;;8.45;4.55;;;15.60;96.40;;;;;;6213740;23;20312;-77
2023/05/14 03:06:31;;;;;;;9.60;4.80;;;15.50;96.20;;;;;;6213488;23;20063;-78
2023/05/14 03:08:56;;;;;;;8.10;4.47;;;15.50;96.10;;;;;;6213966;23;20001;-79
2023/05/14 03:11:22;;;;;;;7.90;4.50;;;15.40;96.20;;;;;;6214409;23;20001;-79
2023/05/14 03:13:48;;;;;;;9.13;4.28;;;15.40;96.00;;;;;;6214193;23;20004;-79
2023/05/14 03:16:13;;;;;;;10.80;4.10;;;15.30;96.00;;;;;;6214096;23;20142;-79
2023/05/14 03:18:39;;;;;;;7.13;4.20;;;15.30;96.20;;;;;;6215323;23;20014;-78
2023/05/14 03:21:05;;;;;;;11.55;4.95;;;15.20;96.10;;;;;;6216241;23;20000;-78
2023/05/14 03:23:33;;;;;;;7.47;4.43;;;15.20;96.10;;;;;;6216130;23;20001;-79
2023/05/14 03:25:59;;;;;;;7.28;4.30;;;15.20;96.20;;;;;;6215673;23;20028;-79
2023/05/14 03:28:25;;;;;;;10.25;4.90;;;15.10;96.30;;;;;;6216059;23;20449;-78
2023/05/14 03:30:51;;;;;;;11.68;4.68;;;15.10;96.30;;;;;;6216093;23;19997;-79
2023/05/14 03:33:17;;;;;;;10.65;5.00;;;15.10;96.40;;;;;;6215797;23;20005;-78
2023/05/14 03:35:42;;;;;;;9.50;4.57;;;15.10;96.40;;;;;;6215899;23;20008;-78
2023/05/14 03:38:08;;;;;;;8.55;4.60;;;15.20;96.40;;;;;;6215900;23;20073;-78
2023/05/14 03:40:34;;;;;;;10.32;5.28;;;15.10;96.50;;;;;;6216177;23;20079;-78
2023/05/14 03:43:00;;;;;;;9.18;5.60;;;15.10;96.50;;;;;;6216044;23;20001;-78
2023/05/14 03:45:27;;;;;;;8.52;5.30;;;15.10;96.60;;;;;;6216799;23;20076;-79
2023/05/14 03:47:53;;;;;;;9.65;5.53;;;15.10;96.70;;;;;;6189433;23;20338;-79
2023/05/14 03:50:18;;;;;;;10.52;6.05;;;15.10;96.80;;;;;;6215996;23;19997;-79
2023/05/14 03:52:44;;;;;;;11.73;6.03;;;15.10;96.80;;;;;;6216123;23;20000;-79
2023/05/14 03:55:10;;;;;;;9.77;4.95;;;15.10;96.80;;;;;;6215913;23;20382;-78
2023/05/14 03:57:36;;;;;;;8.23;4.68;;;15.20;96.90;;;;;;6215846;23;20020;-78
2023/05/14 04:00:03;;;;;;;10.77;5.85;;;15.20;96.80;;;;;;6215880;23;20043;-79
2023/05/14 04:02:29;;;;;;;8.40;5.10;;;15.30;96.80;;;;;;6215859;23;20406;-77
2023/05/14 04:04:55;;;;;;;11.15;5.35;;;15.30;96.80;;;;;;6215831;23;19997;-77
2023/05/14 04:07:20;;;;;;;9.75;5.15;;;15.30;96.90;;;;;;6188791;23;20147;-79
2023/05/14 04:09:46;;;;;;;12.30;5.63;;;15.30;96.80;;;;;;6215730;23;20431;-79
2023/05/14 04:12:12;;;;;;;10.65;5.38;;;15.40;96.90;;;;;;6216095;23;20004;-78
2023/05/14 04:14:38;;;;;;;10.60;4.88;;;15.40;96.80;;;;;;6215756;23;20008;-78
2023/05/14 04:17:03;;;;;;;9.50;5.05;;;15.40;97.00;;;;;;6215431;23;20008;-80
2023/05/14 04:19:29;;;;;;;9.50;5.07;;;15.50;96.90;;;;;;6215439;23;20488;-79
2023/05/14 04:21:55;;;;;;;10.80;5.80;;;15.50;96.80;;;;;;6215831;23;20012;-78
2023/05/14 04:24:20;;;;;;;8.68;5.05;;;15.60;96.80;;;;;;6188971;23;20134;-79
2023/05/14 04:26:46;;;;;;;10.27;5.57;;;15.60;96.70;;;;;;6215145;23;20040;-79
2023/05/14 04:29:12;;;;;;;9.80;5.32;;;15.60;96.60;;;;;;6215327;23;19997;-79
2023/05/14 04:31:37;;;;;;;10.77;5.30;;;15.60;96.50;;;;;;6216482;23;20004;-78
2023/05/14 04:34:04;;;;;;;20.15;12.30;;;15.60;96.50;;;;;;6215784;23;19992;-78
2023/05/14 04:36:30;;;;;;;10.90;5.57;;;15.50;96.50;;;;;;6215465;23;20063;-78
2023/05/14 04:38:55;;;;;;;10.20;5.53;;;15.50;96.50;;;;;;6215419;23;20024;-78
2023/05/14 04:41:21;;;;;;;8.40;5.07;;;15.50;96.40;;;;;;6215447;23;20426;-77
2023/05/14 04:43:49;;;;;;;12.55;4.95;;;15.50;96.50;;;;;;6215669;23;20059;-78
2023/05/14 04:46:15;;;;;;;11.15;4.90;;;15.60;96.50;;;;;;6215402;23;20430;-78
2023/05/14 04:48:41;;;;;;;10.45;4.80;;;15.70;96.30;;;;;;6215300;23;20031;-78
2023/05/14 04:51:07;;;;;;;12.30;5.05;;;15.70;96.20;;;;;;6214924;23;20015;-79
2023/05/14 04:53:33;;;;;;;9.77;4.85;;;15.70;96.10;;;;;;6215022;23;20000;-78
2023/05/14 04:55:58;;;;;;;9.43;4.85;;;15.60;96.20;;;;;;6215335;23;20011;-79
2023/05/14 04:58:26;;;;;;;9.50;5.07;;;15.60;96.30;;;;;;6215364;23;20076;-78
2023/05/14 05:00:52;;;;;;;8.88;4.68;;;15.50;96.20;;;;;;6214605;23;20004;-78
2023/05/14 05:03:17;;;;;;;8.02;4.85;;;15.50;96.30;;;;;;6214823;23;20035;-78
2023/05/14 05:05:43;;;;;;;10.82;5.10;;;15.40;96.20;;;;;;6215129;23;20011;-79
2023/05/14 05:08:10;;;;;;;11.50;5.50;;;15.50;96.40;;;;;;6214980;23;20035;-79
2023/05/14 05:10:35;;;;;;;12.52;5.55;;;15.50;96.30;;;;;;6214925;23;20005;-79
2023/05/14 05:13:01;;;;;;;9.65;5.10;;;15.50;96.20;;;;;;6188502;23;20012;-78
2023/05/14 05:15:27;;;;;;;9.70;4.82;;;15.50;96.20;;;;;;6188302;23;20011;-77
2023/05/14 05:17:52;;;;;;;10.18;5.40;;;15.60;96.20;;;;;;6214643;23;20434;-78
2023/05/14 05:20:18;;;;;;;11.07;5.07;;;15.60;96.20;;;;;;6216983;23;20482;-77
2023/05/14 05:22:44;;;;;;;10.32;4.78;;;15.70;96.20;;;;;;6215212;23;20024;-78
2023/05/14 05:25:11;;;;;;;9.07;5.38;;;15.70;96.10;;;;;;6214619;23;20007;-79
2023/05/14 05:27:37;;;;;;;12.98;5.40;;;15.80;96.00;;;;;;6215268;23;20016;-78
2023/05/14 05:30:03;;;;;;;9.82;5.57;;;15.80;96.10;;;;;;6214786;23;20001;-79
2023/05/14 05:32:29;;;;;;;10.40;5.50;;;15.80;96.00;;;;;;6215492;23;20005;-79
2023/05/14 05:34:55;;;;;;;9.57;5.45;;;15.80;96.00;;;;;;6214791;23;20059;-79
2023/05/14 05:37:21;;;;;;;10.27;5.20;;;15.80;96.00;;;;;;6214594;23;20001;-79
2023/05/14 05:39:47;;;;;;;8.63;5.50;;;15.80;96.20;;;;;;6214791;23;20024;-79
2023/05/14 05:42:13;;;;;;;9.20;5.22;;;15.80;96.30;;;;;;6214110;23;20000;-79
2023/05/14 05:44:39;;;;;;;12.05;7.07;;;15.90;96.40;;;;;;6214676;23;19997;-79
2023/05/14 05:47:05;;;;;;;11.80;5.53;;;15.90;96.30;;;;;;6214688;23;20019;-79
2023/05/14 05:49:30;;;;;;;10.63;5.50;;;15.90;96.10;;;;;;6214659;23;20024;-79
2023/05/14 05:51:56;;;;;;;10.27;5.40;;;15.90;96.20;;;;;;6214636;23;20000;-80
2023/05/14 05:54:23;;;;;;;8.65;5.03;;;15.90;96.10;;;;;;6188096;23;20008;-79
2023/05/14 05:56:49;;;;;;;8.70;4.93;;;16.00;96.10;;;;;;6214821;23;20001;-79
2023/05/14 05:59:15;;;;;;;11.57;5.57;;;16.10;96.10;;;;;;6214792;23;20039;-79
2023/05/14 06:01:42;;;;;;;8.27;4.80;;;16.10;95.90;;;;;;6214695;23;20000;-80
2023/05/14 06:04:08;;;;;;;8.75;4.80;;;16.10;95.90;;;;;;6214543;23;20422;-79
2023/05/14 06:06:34;;;;;;;9.63;5.20;;;16.20;95.80;;;;;;6189273;23;20043;-80
2023/05/14 06:09:00;;;;;;;11.88;5.40;;;16.30;96.00;;;;;;6217068;23;20005;-79
2023/05/14 06:11:26;;;;;;;10.02;5.63;;;16.30;95.80;;;;;;6214744;23;20365;-79
2023/05/14 06:13:52;;;;;;;10.93;5.32;;;16.40;95.70;;;;;;6213646;23;20067;-79
2023/05/14 06:16:18;;;;;;;12.88;5.22;;;16.40;95.70;;;;;;6214114;23;20069;-80
2023/05/14 06:18:44;;;;;;;9.63;5.70;;;16.30;95.50;;;;;;6214006;23;20068;-79
2023/05/14 06:21:10;;;;;;;9.68;5.57;;;16.30;95.60;;;;;;6213990;23;20008;-79
2023/05/14 06:23:36;;;;;;;13.70;8.13;;;16.40;95.60;;;;;;6214217;23;20029;-78
2023/05/14 06:26:02;;;;;;;11.05;6.68;;;16.50;95.60;;;;;;6214368;23;20426;-79
2023/05/14 06:28:28;;;;;;;10.35;5.43;;;16.50;95.50;;;;;;6214402;23;20030;-79
2023/05/14 06:30:53;;;;;;;8.60;4.55;;;16.60;95.40;;;;;;6214438;23;20000;-80
2023/05/14 06:33:22;;;;;;;6.75;3.72;;;16.60;95.30;;;;;;6214205;23;20076;-79
2023/05/14 06:35:48;;;;;;;7.93;4.35;;;16.50;95.10;;;;;;6214294;23;20003;-79
2023/05/14 06:38:13;;;;;;;7.63;4.30;;;16.50;95.00;;;;;;6214540;23;20000;-79
2023/05/14 06:40:39;;;;;;;8.13;4.20;;;16.50;95.00;;;;;;6214326;23;20083;-78
2023/05/14 06:43:05;;;;;;;9.07;3.60;;;16.60;94.90;;;;;;6213827;23;20327;-78
2023/05/14 06:45:31;;;;;;;9.55;3.90;;;16.60;94.80;;;;;;6214045;23;20032;-78
2023/05/14 06:47:56;;;;;;;7.72;4.22;;;16.70;94.70;;;;;;6214166;23;20324;-78
2023/05/14 06:50:22;;;;;;;9.82;4.70;;;16.90;94.50;;;;;;6214214;23;20027;-79
2023/05/14 06:52:48;;;;;;;7.32;4.25;;;17.00;94.40;;;;;;6214151;23;20001;-80
2023/05/14 06:55:13;;;;;;;10.00;5.20;;;17.20;94.30;;;;;;6216351;23;20067;-78
2023/05/14 06:57:39;;;;;;;10.05;5.38;;;17.30;94.10;;;;;;6214533;23;20005;-79
2023/05/14 07:00:05;;;;;;;6.05;3.40;;;17.50;94.10;;;;;;6214451;23;19997;-80
2023/05/14 07:02:31;;;;;;;6.97;3.80;;;17.50;93.50;;;;;;6214130;23;20017;-80
2023/05/14 07:04:57;;;;;;;11.32;3.60;;;17.50;93.60;;;;;;6214718;23;20434;-80
2023/05/14 07:07:22;;;;;;;7.35;3.38;;;17.60;93.40;;;;;;6214302;23;20009;-81
2023/05/14 07:09:48;;;;;;;5.63;3.13;;;17.50;93.20;;;;;;6214347;23;20431;-80
2023/05/14 07:12:14;;;;;;;8.50;3.80;;;17.40;93.40;;;;;;6213796;23;20051;-82
2023/05/14 07:14:39;;;;;;;9.35;5.55;;;17.40;93.50;;;;;;6187574;23;20059;-79
2023/05/14 07:17:05;;;;;;;8.45;4.25;;;17.50;93.50;;;;;;6214184;23;20397;-79
2023/05/14 07:19:31;;;;;;;7.55;4.03;;;17.60;93.50;;;;;;6214321;23;20083;-80
2023/05/14 07:21:56;;;;;;;15.70;5.07;;;17.70;93.30;;;;;;6213978;23;20001;-80
2023/05/14 07:24:23;;;;;;;17.63;13.00;;;17.80;93.10;;;;;;6214258;23;20008;-81
2023/05/14 07:26:48;;;;;;;8.68;3.75;;;18.10;92.90;;;;;;6214236;23;20061;-81
2023/05/14 07:29:14;;;;;;;5.55;3.25;;;18.20;92.60;;;;;;6186991;23;20043;-80
2023/05/14 07:31:40;;;;;;;9.00;3.42;;;18.40;92.40;;;;;;6213907;23;20028;-79
2023/05/14 07:34:07;;;;;;;5.50;3.20;;;18.40;92.10;;;;;;6214094;23;20001;-81
2023/05/14 07:36:33;;;;;;;9.38;3.28;;;18.60;91.70;;;;;;6215217;23;20092;-77
2023/05/14 07:38:59;;;;;;;8.38;3.67;;;18.80;91.40;;;;;;6214426;23;19997;-79
2023/05/14 07:41:24;;;;;;;6.57;3.20;;;18.90;91.00;;;;;;6215888;23;20005;-79
2023/05/14 07:43:50;;;;;;;7.38;3.00;;;19.00;91.00;;;;;;6216005;23;20372;-80
2023/05/14 07:46:16;;;;;;;6.10;3.75;;;19.20;90.90;;;;;;6216527;23;20004;-79
2023/05/14 07:48:41;;;;;;;4.93;3.00;;;19.30;90.80;;;;;;6216443;23;20008;-81
2023/05/14 07:51:07;;;;;;;7.00;3.53;;;19.20;90.50;;;;;;6188544;23;20000;-81
2023/05/14 07:53:33;;;;;;;6.80;2.90;;;19.20;90.70;;;;;;6215091;23;20394;-81
2023/05/14 07:55:59;;;;;;;10.40;4.57;;;19.20;90.50;;;;;;6213675;23;20427;-79
2023/05/14 07:58:26;;;;;;;6.18;3.53;;;19.30;90.30;;;;;;6214680;23;20075;-82
2023/05/14 08:00:52;;;;;;;6.00;2.30;;;19.60;90.00;;;;;;6215374;23;20027;-81
2023/05/14 08:03:18;;;;;;;5.35;2.38;;;19.50;89.20;;;;;;6214727;23;20012;-78
2023/05/14 08:05:43;;;;;;;4.68;2.35;;;19.40;89.40;;;;;;6215695;23;20438;-80
2023/05/14 08:08:09;;;;;;;7.30;2.42;;;19.30;89.40;;;;;;6215427;23;20016;-78
2023/05/14 08:10:35;;;;;;;6.25;3.08;;;19.20;89.40;;;;;;6214642;23;19997;-76
2023/05/14 08:13:01;;;;;;;6.65;3.20;;;19.30;89.20;;;;;;6215331;23;20006;-75
2023/05/14 08:15:26;;;;;;;5.43;3.08;;;19.20;89.30;;;;;;6215747;23;20001;-75
2023/05/14 08:17:52;;;;;;;7.07;3.22;;;19.20;89.40;;;;;;6216247;23;20031;-77
2023/05/14 08:20:18;;;;;;;6.70;3.67;;;19.20;89.70;;;;;;6215409;23;20023;-78
2023/05/14 08:22:43;;;;;;;8.55;4.80;;;19.20;89.80;;;;;;6216080;23;20012;-77
2023/05/14 08:25:09;;;;;;;8.60;3.80;;;19.10;89.90;;;;;;6191127;23;20001;-77
2023/05/14 08:27:35;;;;;;;8.70;3.53;;;19.10;90.10;;;;;;6217300;23;20076;-81
2023/05/14 08:30:01;;;;;;;5.20;2.92;;;19.10;90.10;;;;;;6217022;23;20345;-78
2023/05/14 08:32:26;;;;;;;4.90;2.45;;;19.10;90.10;;;;;;6216144;23;20003;-77
2023/05/14 08:34:52;;;;;;;6.10;3.22;;;19.00;90.10;;;;;;6215297;23;20008;-74
2023/05/14 08:37:18;;;;;;;5.85;2.88;;;19.00;90.00;;;;;;6213641;23;20001;-74
2023/05/14 08:39:44;;;;;;;7.60;2.70;;;19.00;90.00;;;;;;6214889;23;20114;-74
2023/05/14 08:42:12;;;;;;;5.90;2.47;;;19.10;90.00;;;;;;6214843;23;20342;-74
2023/05/14 08:44:59;;;;;;;6.43;2.60;;;19.20;89.70;;;;;;6215318;23;20024;-75
2023/05/14 08:47:25;;;;;;;5.82;2.83;;;19.50;89.00;;;;;;6215238;23;20009;-76
2023/05/14 08:50:09;;;;;;;4.85;2.50;;;19.60;88.30;;;;;;6215256;23;20023;-77
2023/05/14 08:52:35;;;;;;;;;;;19.90;87.80;;;;;;6216205;23;20003;-76
2023/05/14 08:55:04;;;;;;;5.70;2.30;;;20.00;87.10;;;;;;6215378;23;19904;-77
2023/05/14 08:57:32;;;;;;;5.03;2.45;;;20.10;86.90;;;;;;6188626;23;20004;-77
2023/05/14 08:59:57;;;;;;;5.07;2.90;;;20.10;86.80;;;;;;6215642;23;20012;-80
2023/05/14 09:02:26;;;;;;;9.60;5.50;;;20.00;87.10;;;;;;6215427;23;20347;-76
2023/05/14 09:04:55;;;;;;;10.60;3.80;;;19.90;87.20;;;;;;6189005;23;20458;-79
2023/05/14 09:07:21;;;;;;;7.13;3.28;;;19.70;87.40;;;;;;6215317;23;20115;-77
2023/05/14 09:09:47;;;;;;;6.07;2.60;;;19.60;88.00;;;;;;6215003;23;20000;-74
2023/05/14 09:12:14;;;;;;;6.18;2.95;;;19.70;88.10;;;;;;6215233;23;20324;-77
2023/05/14 09:14:40;;;;;;;7.82;2.80;;;19.90;87.80;;;;;;6214880;23;19997;-75
2023/05/14 09:17:07;;;;;;;8.68;3.25;;;20.20;87.30;;;;;;6215451;23;20023;-76
2023/05/14 09:19:33;;;;;;;7.05;4.28;;;20.40;86.40;;;;;;6213816;23;20435;-77
2023/05/14 09:21:59;;;;;;;6.47;2.63;;;20.60;86.00;;;;;;6215945;23;20062;-77
2023/05/14 09:24:27;;;;;;;6.35;3.00;;;20.60;85.40;;;;;;6216449;23;20075;-74
2023/05/14 09:26:57;;;;;;;5.57;2.30;;;20.50;85.10;;;;;;6214873;23;20009;-76
2023/05/14 09:29:28;;;;;;;4.55;2.72;;;20.50;85.40;;;;;;6215171;23;20003;-77
2023/05/14 09:31:55;;;;;;;5.05;2.47;;;20.40;85.40;;;;;;6215440;23;20035;-76
2023/05/14 09:34:27;;;;;;;6.75;2.50;;;20.30;85.50;;;;;;6214848;23;20008;-77
2023/05/14 09:36:57;;;;;;;7.07;2.90;;;20.20;85.80;;;;;;6214766;23;20001;-76
2023/05/14 09:39:23;;;;;;;6.78;2.40;;;20.20;85.50;;;;;;6215296;23;20016;-79
2023/05/14 09:41:50;;;;;;;6.20;2.40;;;20.30;85.40;;;;;;6215495;23;20005;-77
2023/05/14 09:44:16;;;;;;;7.10;2.90;;;20.30;85.40;;;;;;6187566;23;20016;-75
2023/05/14 09:46:43;;;;;;;6.63;2.63;;;20.30;84.80;;;;;;6214861;23;20023;-77
2023/05/14 09:49:09;;;;;;;5.70;2.45;;;20.30;84.80;;;;;;6214876;23;20431;-78
2023/05/14 09:51:36;;;;;;;7.18;2.38;;;20.30;84.40;;;;;;6215110;23;20032;-75
2023/05/14 09:54:03;;;;;;;4.75;2.30;;;20.50;84.00;;;;;;6214919;23;20032;-75
2023/05/14 09:56:29;;;;;;;6.22;2.33;;;20.70;83.40;;;;;;6216535;23;19996;-78
2023/05/14 09:58:55;;;;;;;6.85;2.28;;;20.80;83.30;;;;;;6215721;23;20015;-78
2023/05/14 10:01:21;;;;;;;5.53;2.53;;;20.80;82.70;;;;;;6219640;23;20273;-80
2023/05/14 10:03:48;;;;;;;6.35;1.95;;;20.80;82.60;;;;;;6217034;23;20016;-80
2023/05/14 10:06:16;;;;;;;5.40;1.98;;;20.70;82.40;;;;;;6216558;23;20005;-79
2023/05/14 10:08:44;;;;;;;7.18;2.38;;;20.70;81.80;;;;;;6215073;23;20032;-79
2023/05/14 10:11:19;;;;;;;7.85;2.65;;;20.80;81.00;;;;;;6215316;23;20005;-78
2023/05/14 10:13:49;;;;;;;7.63;3.55;;;20.80;80.50;;;;;;6216711;23;20092;-82
2023/05/14 10:16:33;;;;;;;5.60;2.15;;;20.80;79.70;;;;;;6216531;23;20156;-80
2023/05/14 10:19:14;;;;;;;7.30;3.05;;;20.80;80.20;;;;;;6215894;23;20334;-81
2023/05/14 10:21:43;;;;;;;7.63;2.60;;;20.80;79.30;;;;;;6189879;23;20009;-83
2023/05/14 10:24:09;;;;;;;7.03;2.53;;;20.80;79.00;;;;;;6215083;23;20024;-78
2023/05/14 10:26:38;;;;;;;7.60;2.10;;;20.80;78.60;;;;;;6213461;23;20016;-79
2023/05/14 10:29:08;;;;;;;6.00;1.90;;;20.80;78.30;;;;;;6214045;23;20028;-81
2023/05/14 10:31:54;;;;;;;4.70;1.80;;;20.80;78.50;;;;;;6214394;23;20378;-81
2023/05/14 10:34:40;;;;;;;5.45;1.80;;;20.90;78.00;;;;;;6213993;23;20000;-78
2023/05/14 10:37:13;;;;;;;4.55;1.75;;;20.90;77.40;;;;;;6214561;23;19996;-80
2023/05/14 10:39:49;;;;;;;6.68;2.75;;;21.00;76.70;;;;;;6213878;23;20007;-80
2023/05/14 10:42:24;;;;;;;6.82;3.13;;;21.10;76.80;;;;;;6215052;23;20005;-79
2023/05/14 10:44:57;;;;;;;6.63;2.47;;;21.20;75.80;;;;;;6189769;23;20076;-81
2023/05/14 10:47:30;;;;;;;8.95;3.08;;;21.40;74.90;;;;;;6218696;23;20009;-81
2023/05/14 10:49:58;;;;;;;4.90;1.70;;;21.50;74.10;;;;;;6214281;23;20327;-75
2023/05/14 10:52:24;;;;;;;3.97;1.92;;;21.60;73.20;;;;;;6214141;23;20232;-75
2023/05/14 10:55:01;;;;;;;3.85;1.75;;;21.70;72.70;;;;;;6214705;23;20027;-75
2023/05/14 10:57:29;;;;;;;4.22;1.60;;;21.80;72.60;;;;;;6187405;23;20084;-77
2023/05/14 10:59:58;;;;;;;4.53;2.00;;;22.00;72.40;;;;;;6213931;23;20076;-77
2023/05/14 11:02:26;;;;;;;6.22;2.25;;;22.30;71.20;;;;;;6213763;23;20027;-74
2023/05/14 11:05:02;;;;;;;3.58;1.33;;;22.30;70.50;;;;;;6214168;23;20327;-76
2023/05/14 11:07:40;;;;;;;6.43;2.13;;;22.20;70.00;;;;;;6213948;23;20087;-73
2023/05/14 11:10:14;;;;;;;5.47;2.28;;;22.10;69.70;;;;;;6187681;23;20079;-78
2023/05/14 11:12:42;;;;;;;5.03;2.13;;;22.10;70.20;;;;;;6217586;23;20011;-76
2023/05/14 11:15:29;;;;;;;6.72;2.50;;;22.10;70.10;;;;;;6216139;23;20370;-74
2023/05/14 11:17:55;;;;;;;5.05;2.00;;;22.10;70.00;;;;;;6214228;23;20064;-74
2023/05/14 11:20:21;;;;;;;5.50;1.90;;;22.20;70.00;;;;;;6214358;23;20043;-75
2023/05/14 11:22:48;;;;;;;5.25;1.90;;;22.20;69.30;;;;;;6214604;23;20454;-74
2023/05/14 11:25:14;;;;;;;4.95;1.60;;;22.20;69.10;;;;;;6213843;23;20007;-74
2023/05/14 11:27:43;;;;;;;4.60;1.67;;;22.30;68.60;;;;;;6213328;23;20474;-74
2023/05/14 11:30:17;;;;;;;2.50;1.30;;;22.30;68.10;;;;;;6213413;23;20001;-72
2023/05/14 11:32:44;;;;;;;4.25;1.52;;;22.30;67.60;;;;;;6213692;23;20008;-73
2023/05/14 11:35:10;;;;;;;6.13;1.80;;;22.30;67.60;;;;;;6187087;23;20107;-74
2023/05/14 11:37:36;;;;;;;4.88;1.67;;;22.30;67.30;;;;;;6214005;23;20001;-75
2023/05/14 11:40:01;;;;;;;4.45;1.50;;;22.20;67.30;;;;;;6214444;23;20000;-76
2023/05/14 11:42:27;;;;;;;8.55;2.72;;;22.10;67.40;;;;;;6215267;23;19993;-77
2023/05/14 11:44:53;;;;;;;5.15;1.65;;;22.00;68.30;;;;;;6215566;23;20011;-72
2023/05/14 11:47:20;;;;;;;6.50;1.85;;;21.80;68.80;;;;;;6216377;23;20008;-72
2023/05/14 11:49:46;;;;;;;3.90;1.70;;;21.70;69.00;;;;;;6214525;23;20423;-75
2023/05/14 11:52:13;;;;;;;5.85;2.10;;;21.70;68.90;;;;;;6215937;23;20083;-77
2023/05/14 11:54:41;;;;;;;3.58;1.70;;;21.60;69.10;;;;;;6215577;23;20007;-71
2023/05/14 11:57:12;;;;;;;3.88;1.67;;;21.70;69.40;;;;;;6216209;23;20001;-78
2023/05/14 11:59:39;;;;;;;6.70;3.65;;;21.80;69.20;;;;;;6216483;23;20024;-81
2023/05/14 12:02:08;;;;;;;3.58;1.50;;;21.90;68.60;;;;;;6216791;23;20004;-83
2023/05/14 12:04:34;;;;;;;4.18;1.85;;;21.90;68.10;;;;;;6216599;23;20017;-82
2023/05/14 12:07:15;;;;;;;3.53;1.65;;;22.00;67.90;;;;;;6216060;23;20075;-79
2023/05/14 12:09:48;;;;;;;3.42;1.40;;;22.10;68.10;;;;;;6216771;23;20426;-81
2023/05/14 12:12:16;;;;;;;3.20;1.40;;;22.00;67.60;;;;;;6216019;23;20007;-82
2023/05/14 12:14:42;;;;;;;3.95;1.30;;;21.90;67.60;;;;;;6216639;23;20604;-80
2023/05/14 12:17:15;;;;;;;4.63;1.23;;;22.00;68.10;;;;;;6190514;23;20334;-80
2023/05/14 12:19:42;;;;;;;4.03;1.60;;;22.10;68.20;;;;;;6216912;23;20311;-80
2023/05/14 12:22:10;;;;;;;5.07;1.70;;;22.20;67.60;;;;;;6215637;23;20004;-77
2023/05/14 12:24:37;;;;;;;7.22;4.15;;;22.20;67.80;;;;;;6215826;23;20024;-79
2023/05/14 12:27:04;;;;;;;4.03;2.00;;;22.10;67.60;;;;;;6216609;23;20015;-75
2023/05/14 12:29:29;;;;;;;3.80;1.70;;;22.00;68.20;;;;;;6215718;23;20072;-82
2023/05/14 12:31:58;;;;;;;3.22;1.20;;;22.00;69.00;;;;;;6216196;23;20082;-79
2023/05/14 12:34:23;;;;;;;2.95;1.38;;;22.10;69.30;;;;;;6215972;23;20008;-80
2023/05/14 12:36:49;;;;;;;5.07;1.30;;;22.20;67.30;;;;;;6190305;23;20021;-80
2023/05/14 12:39:15;;;;;;;3.65;1.15;;;22.20;66.60;;;;;;6215627;23;19997;-85
2023/05/14 12:41:40;;;;;;;4.63;1.23;;;22.10;66.40;;;;;;6215617;23;20031;-77
2023/05/14 12:44:06;;;;;;;3.30;1.40;;;22.10;65.90;;;;;;6188637;23;20054;-78